createdAt,value
2023-02-15T00:00:16.021Z,101282.31
2023-02-15T00:02:43.902Z,101294.38
2023-02-15T00:05:14.333Z,101289.34
2023-02-15T00:07:42.146Z,101283.50
2023-02-15T00:10:10.342Z,101287.75
2023-02-15T00:12:38.127Z,101294.44
2023-02-15T00:15:06.143Z,101292.34
2023-02-15T00:17:34.082Z,101289.63
2023-02-15T00:20:02.008Z,101285.28
2023-02-15T00:22:32.697Z,101299.34
2023-02-15T00:25:00.838Z,101297.00
2023-02-15T00:27:28.589Z,101299.44
2023-02-15T00:29:56.383Z,101309.22
2023-02-15T00:32:24.728Z,101301.44
2023-02-15T00:34:52.633Z,101309.72
2023-02-15T00:37:20.627Z,101299.69
2023-02-15T00:39:51.107Z,101303.16
2023-02-15T00:42:22.044Z,101300.72
2023-02-15T00:44:49.762Z,101303.13
2023-02-15T00:47:17.766Z,101295.81
2023-02-15T00:49:45.586Z,101300.94
2023-02-15T00:52:13.593Z,101299.84
2023-02-15T00:54:41.382Z,101304.94
2023-02-15T00:57:09.052Z,101292.25
2023-02-15T00:59:36.733Z,101292.34
2023-02-15T01:02:04.616Z,101296.16
2023-02-15T01:04:38.329Z,101299.56
2023-02-15T01:07:09.214Z,101306.31
2023-02-15T01:09:37.148Z,101304.22
2023-02-15T01:12:04.946Z,101313.59
2023-02-15T01:14:33.094Z,101309.31
2023-02-15T01:17:00.805Z,101323.28
2023-02-15T01:19:33.151Z,101320.00
2023-02-15T01:22:00.885Z,101322.09
2023-02-15T01:24:28.837Z,101316.72
2023-02-15T01:26:56.768Z,101308.25
2023-02-15T01:29:24.449Z,101311.44
2023-02-15T01:31:52.627Z,101314.78
2023-02-15T01:34:20.443Z,101311.28
2023-02-15T01:36:49.489Z,101312.50
2023-02-15T01:39:17.182Z,101313.47
2023-02-15T01:41:45.036Z,101315.19
2023-02-15T01:44:46.859Z,101319.63
2023-02-15T01:47:17.601Z,101323.97
2023-02-15T01:49:45.612Z,101332.00
2023-02-15T01:52:14.772Z,101326.41
2023-02-15T01:54:43.294Z,101330.94
2023-02-15T01:57:14.000Z,101319.69
2023-02-15T01:59:42.116Z,101331.13
2023-02-15T02:02:10.715Z,101330.47
2023-02-15T02:04:45.106Z,101329.94
2023-02-15T02:07:14.108Z,101336.88
2023-02-15T02:09:41.838Z,101336.97
2023-02-15T02:12:09.559Z,101337.31
2023-02-15T02:14:37.812Z,101334.41
2023-02-15T02:17:32.789Z,101338.63
2023-02-15T02:20:21.810Z,101340.22
2023-02-15T02:23:12.279Z,101336.38
2023-02-15T02:26:18.428Z,101344.31
2023-02-15T02:28:55.257Z,101335.19
2023-02-15T02:31:45.674Z,101343.28
2023-02-15T02:34:21.114Z,101342.69
2023-02-15T02:36:53.869Z,101350.38
2023-02-15T02:39:42.059Z,101359.78
2023-02-15T02:42:18.372Z,101354.41
2023-02-15T02:44:52.975Z,101352.72
2023-02-15T02:47:25.445Z,101367.97
2023-02-15T02:49:53.921Z,101373.00
2023-02-15T02:52:42.154Z,101380.50
2023-02-15T02:55:22.490Z,101370.97
2023-02-15T02:58:04.929Z,101359.97
2023-02-15T03:00:37.926Z,101374.53
2023-02-15T03:03:09.017Z,101364.44
2023-02-15T03:05:40.764Z,101366.44
2023-02-15T03:08:11.089Z,101367.94
2023-02-15T03:10:40.829Z,101374.97
2023-02-15T03:13:08.997Z,101381.72
2023-02-15T03:15:59.634Z,101383.25
2023-02-15T03:18:33.135Z,101381.97
2023-02-15T03:21:01.585Z,101380.09
2023-02-15T03:23:30.334Z,101382.78
2023-02-15T03:26:02.237Z,101371.47
2023-02-15T03:28:43.972Z,101379.31
2023-02-15T03:31:12.449Z,101380.63
2023-02-15T03:33:45.513Z,101376.50
2023-02-15T03:36:24.091Z,101386.03
2023-02-15T03:39:06.456Z,101382.56
2023-02-15T03:41:38.398Z,101382.28
2023-02-15T03:44:20.160Z,101381.31
2023-02-15T03:46:56.017Z,101377.03
2023-02-15T03:49:30.245Z,101385.00
2023-02-15T03:51:58.887Z,101393.63
2023-02-15T03:54:43.899Z,101397.09
2023-02-15T03:57:41.001Z,101399.13
2023-02-15T04:00:43.650Z,101403.50
2023-02-15T04:03:17.284Z,101401.69
2023-02-15T04:05:45.750Z,101414.03
2023-02-15T04:08:13.790Z,101403.56
2023-02-15T04:10:59.225Z,101420.63
2023-02-15T04:13:40.089Z,101419.50
2023-02-15T04:16:08.670Z,101414.47
2023-02-15T04:19:02.325Z,101419.78
2023-02-15T04:21:50.021Z,101422.06
2023-02-15T04:24:36.870Z,101426.50
2023-02-15T04:27:05.507Z,101427.84
2023-02-15T04:29:33.636Z,101421.09
2023-02-15T04:32:01.922Z,101426.56
2023-02-15T04:34:29.784Z,101423.59
2023-02-15T04:36:57.756Z,101435.81
2023-02-15T04:39:25.432Z,101438.00
2023-02-15T04:41:53.252Z,101441.19
2023-02-15T04:44:20.977Z,101423.72
2023-02-15T04:46:48.697Z,101444.81
2023-02-15T04:49:16.354Z,101452.91
2023-02-15T04:51:44.395Z,101455.81
2023-02-15T04:54:12.194Z,101460.38
2023-02-15T04:56:40.509Z,101457.41
2023-02-15T04:59:13.409Z,101474.44
2023-02-15T05:01:42.763Z,101471.19
2023-02-15T05:04:10.698Z,101467.97
2023-02-15T05:06:39.108Z,101478.94
2023-02-15T05:09:06.827Z,101469.72
2023-02-15T05:11:34.710Z,101480.22
2023-02-15T05:14:02.686Z,101482.94
2023-02-15T05:16:30.541Z,101492.09
2023-02-15T05:18:59.067Z,101485.50
2023-02-15T05:21:31.539Z,101485.06
2023-02-15T05:23:59.489Z,101491.31
2023-02-15T05:26:45.663Z,101479.84
2023-02-15T05:29:13.380Z,101496.00
2023-02-15T05:31:41.304Z,101495.03
2023-02-15T05:34:09.456Z,101491.25
2023-02-15T05:36:37.224Z,101502.38
2023-02-15T05:39:07.058Z,101497.31
2023-02-15T05:41:34.854Z,101504.66
2023-02-15T05:44:02.718Z,101495.38
2023-02-15T05:46:30.642Z,101516.81
2023-02-15T05:48:58.708Z,101507.47
2023-02-15T05:51:26.457Z,101502.97
2023-02-15T05:53:54.174Z,101519.72
2023-02-15T05:56:22.524Z,101522.28
2023-02-15T05:58:50.949Z,101522.53
2023-02-15T06:01:19.414Z,101525.97
2023-02-15T06:03:47.457Z,101508.72
2023-02-15T06:06:16.040Z,101524.88
2023-02-15T06:08:43.977Z,101510.38
2023-02-15T06:11:12.067Z,101521.41
2023-02-15T06:13:40.199Z,101524.31
2023-02-15T06:16:08.142Z,101527.78
2023-02-15T06:18:35.957Z,101533.91
2023-02-15T06:21:03.805Z,101535.50
2023-02-15T06:23:31.857Z,101547.28
2023-02-15T06:25:59.864Z,101540.34
2023-02-15T06:28:27.677Z,101532.16
2023-02-15T06:30:55.417Z,101537.88
2023-02-15T06:33:24.175Z,101530.72
2023-02-15T06:35:52.000Z,101534.94
2023-02-15T06:38:19.761Z,101550.81
2023-02-15T06:40:47.764Z,101547.63
2023-02-15T06:43:15.413Z,101540.81
2023-02-15T06:45:43.446Z,101538.94
2023-02-15T06:48:12.388Z,101550.66
2023-02-15T06:50:40.084Z,101547.16
2023-02-15T06:53:12.076Z,101545.78
2023-02-15T06:55:39.954Z,101550.28
2023-02-15T06:58:07.786Z,101553.31
2023-02-15T07:00:35.629Z,101552.56
2023-02-15T07:03:04.039Z,101550.66
2023-02-15T07:05:34.361Z,101544.41
2023-02-15T07:08:02.303Z,101550.66
2023-02-15T07:10:30.397Z,101566.03
2023-02-15T07:12:58.106Z,101551.63
2023-02-15T07:15:26.477Z,101568.88
2023-02-15T07:17:54.948Z,101565.34
2023-02-15T07:20:23.577Z,101556.88
2023-02-15T07:22:52.283Z,101549.06
2023-02-15T07:25:20.222Z,101553.34
2023-02-15T07:27:47.944Z,101561.81
2023-02-15T07:30:17.208Z,101563.09
2023-02-15T07:33:05.676Z,101558.25
2023-02-15T07:35:36.114Z,101560.19
2023-02-15T07:38:03.809Z,101564.84
2023-02-15T07:40:31.732Z,101573.94
2023-02-15T07:43:00.295Z,101576.53
2023-02-15T07:45:28.279Z,101575.38
2023-02-15T07:47:56.910Z,101575.28
2023-02-15T07:50:24.678Z,101578.13
2023-02-15T07:52:52.820Z,101568.78
2023-02-15T07:55:20.731Z,101571.84
2023-02-15T07:57:49.781Z,101577.47
2023-02-15T08:00:18.828Z,101572.97
2023-02-15T08:03:10.786Z,101572.69
2023-02-15T08:05:38.867Z,101591.38
2023-02-15T08:08:06.901Z,101582.25
2023-02-15T08:10:53.796Z,101580.53
2023-02-15T08:13:23.310Z,101579.06
2023-02-15T08:15:56.227Z,101597.94
2023-02-15T08:18:24.096Z,101594.41
2023-02-15T08:20:52.268Z,101574.41
2023-02-15T08:23:20.686Z,101589.03
2023-02-15T08:25:48.441Z,101579.13
2023-02-15T08:28:16.426Z,101592.59
2023-02-15T08:30:44.454Z,101602.25
2023-02-15T08:33:12.865Z,101599.97
2023-02-15T08:35:40.946Z,101601.78
2023-02-15T08:38:09.699Z,101598.47
2023-02-15T08:40:39.243Z,101602.47
2023-02-15T08:43:08.228Z,101607.00
2023-02-15T08:45:37.079Z,101617.44
2023-02-15T08:48:05.487Z,101605.03
2023-02-15T08:50:35.071Z,101602.66
2023-02-15T08:53:03.217Z,101604.13
2023-02-15T08:55:31.037Z,101597.13
2023-02-15T08:57:59.042Z,101605.88
2023-02-15T09:00:27.127Z,101601.66
2023-02-15T09:02:54.966Z,101596.34
2023-02-15T09:05:23.049Z,101612.94
2023-02-15T09:07:50.863Z,101597.53
2023-02-15T09:10:18.988Z,101583.59
2023-02-15T09:12:47.698Z,101597.97
2023-02-15T09:15:19.831Z,101591.31
2023-02-15T09:17:50.024Z,101581.91
2023-02-15T09:20:17.981Z,101590.53
2023-02-15T09:22:45.899Z,101583.50
2023-02-15T09:25:14.789Z,101586.09
2023-02-15T09:27:43.326Z,101588.44
2023-02-15T09:30:12.402Z,101559.84
2023-02-15T09:32:43.428Z,101600.56
2023-02-15T09:35:13.361Z,101597.16
2023-02-15T09:37:41.596Z,101585.00
2023-02-15T09:40:09.665Z,101592.94
2023-02-15T09:43:23.806Z,101603.78
2023-02-15T09:46:13.787Z,101587.69
2023-02-15T09:48:43.068Z,101595.94
2023-02-15T09:51:18.104Z,101599.00
2023-02-15T09:53:51.934Z,101589.41
2023-02-15T09:56:39.970Z,101595.91
2023-02-15T09:59:36.608Z,101597.38
2023-02-15T10:02:07.322Z,101600.34
2023-02-15T10:04:35.638Z,101589.19
2023-02-15T10:07:28.249Z,101596.28
2023-02-15T10:10:13.322Z,101597.63
2023-02-15T10:13:14.942Z,101622.06
2023-02-15T10:15:59.280Z,101605.25
2023-02-15T10:18:49.978Z,101604.25
2023-02-15T10:21:53.134Z,101613.47
2023-02-15T10:24:42.633Z,101600.06
2023-02-15T10:27:14.665Z,101596.16
2023-02-15T10:30:08.710Z,101598.50
2023-02-15T10:33:00.330Z,101616.06
2023-02-15T10:35:39.364Z,101610.88
2023-02-15T10:38:18.194Z,101611.88
2023-02-15T10:41:08.211Z,101620.19
2023-02-15T10:43:47.677Z,101625.78
2023-02-15T10:46:41.461Z,101644.69
2023-02-15T10:49:27.543Z,101625.59
2023-02-15T10:52:04.129Z,101610.88
2023-02-15T10:54:42.120Z,101659.19
2023-02-15T10:57:19.693Z,101618.66
2023-02-15T10:59:57.168Z,101619.38
2023-02-15T11:02:47.933Z,101629.13
2023-02-15T11:05:37.270Z,101623.50
2023-02-15T11:08:06.413Z,101621.63
2023-02-15T11:10:37.918Z,101631.09
2023-02-15T11:13:18.230Z,101627.53
2023-02-15T11:15:55.539Z,101617.50
2023-02-15T11:18:25.930Z,101630.78
2023-02-15T11:20:59.523Z,101626.38
2023-02-15T11:23:27.455Z,101633.09
2023-02-15T11:26:03.462Z,101633.19
2023-02-15T11:28:48.142Z,101623.66
2023-02-15T11:31:23.699Z,101633.59
2023-02-15T11:33:58.478Z,101636.88
2023-02-15T11:36:27.961Z,101632.50
2023-02-15T11:38:59.571Z,101642.06
2023-02-15T11:41:31.219Z,101639.56
2023-02-15T11:44:09.192Z,101641.72
2023-02-15T11:46:37.985Z,101645.84
2023-02-15T11:49:32.760Z,101643.00
2023-02-15T11:52:08.530Z,101643.78
2023-02-15T11:54:37.783Z,101639.31
2023-02-15T11:57:42.023Z,101642.19
2023-02-15T12:00:14.275Z,101670.84
2023-02-15T12:02:46.532Z,101665.56
2023-02-15T12:05:15.292Z,101668.38
2023-02-15T12:08:05.118Z,101675.09
2023-02-15T12:10:39.532Z,101665.31
2023-02-15T12:13:14.016Z,101664.09
2023-02-15T12:15:47.693Z,101666.47
2023-02-15T12:18:27.305Z,101663.50
2023-02-15T12:20:55.301Z,101676.19
2023-02-15T12:23:23.065Z,101678.09
2023-02-15T12:25:55.606Z,101675.91
2023-02-15T12:28:40.755Z,101695.50
2023-02-15T12:31:24.537Z,101689.00
2023-02-15T12:33:55.128Z,101690.66
2023-02-15T12:36:29.145Z,101693.84
2023-02-15T12:39:29.984Z,101698.59
2023-02-15T12:42:05.144Z,101695.31
2023-02-15T12:44:37.181Z,101694.84
2023-02-15T12:47:18.800Z,101699.88
2023-02-15T12:50:04.754Z,101708.47
2023-02-15T12:52:32.904Z,101705.28
2023-02-15T12:55:21.103Z,101704.88
2023-02-15T12:57:49.039Z,101707.44
2023-02-15T13:00:19.447Z,101714.28
2023-02-15T13:02:54.677Z,101711.44
2023-02-15T13:05:44.156Z,101723.56
2023-02-15T13:08:23.315Z,101721.03
2023-02-15T13:11:00.587Z,101725.34
2023-02-15T13:13:33.002Z,101738.00
2023-02-15T13:16:06.709Z,101724.59
2023-02-15T13:18:47.567Z,101724.56
2023-02-15T13:21:17.892Z,101727.19
2023-02-15T13:23:49.902Z,101727.38
2023-02-15T13:26:20.177Z,101724.38
2023-02-15T13:28:50.085Z,101721.53
2023-02-15T13:31:22.160Z,101726.00
2023-02-15T13:34:02.916Z,101727.25
2023-02-15T13:36:40.723Z,101726.69
2023-02-15T13:39:26.187Z,101729.00
2023-02-15T13:42:03.345Z,101728.81
2023-02-15T13:44:40.501Z,101746.19
2023-02-15T13:47:21.234Z,101740.75
2023-02-15T13:50:14.186Z,101749.91
2023-02-15T13:52:55.738Z,101756.06
2023-02-15T13:55:42.539Z,101750.34
2023-02-15T13:58:28.331Z,101756.19
2023-02-15T14:01:05.251Z,101764.38
2023-02-15T14:04:10.176Z,101772.00
2023-02-15T14:07:10.879Z,101786.44
2023-02-15T14:09:48.732Z,101788.16
2023-02-15T14:12:31.681Z,101783.78
2023-02-15T14:15:08.927Z,101784.84
2023-02-15T14:17:53.546Z,101788.38
2023-02-15T14:20:38.734Z,101788.16
2023-02-15T14:23:12.783Z,101785.47
2023-02-15T14:25:45.965Z,101791.19
2023-02-15T14:28:24.695Z,101788.63
2023-02-15T14:30:53.903Z,101793.47
2023-02-15T14:33:41.797Z,101783.22
2023-02-15T14:36:12.603Z,101783.78
2023-02-15T14:38:58.213Z,101797.84
2023-02-15T14:41:45.168Z,101793.75
2023-02-15T14:44:17.454Z,101808.09
2023-02-15T14:46:59.967Z,101806.47
2023-02-15T14:49:29.105Z,101815.28
2023-02-15T14:52:01.359Z,101813.34
2023-02-15T14:54:34.403Z,101806.81
2023-02-15T14:57:02.086Z,101812.47
2023-02-15T14:59:59.527Z,101813.34
2023-02-15T15:02:51.671Z,101813.75
2023-02-15T15:09:26.993Z,101819.66
2023-02-15T15:12:26.921Z,101827.78
2023-02-15T15:14:56.701Z,101823.22
2023-02-15T15:17:39.199Z,101829.72
2023-02-15T15:20:08.534Z,101832.56
2023-02-15T15:22:36.554Z,101831.19
2023-02-15T15:25:11.912Z,101830.59
2023-02-15T15:27:55.241Z,101827.16
2023-02-15T15:30:24.928Z,101831.22
2023-02-15T15:32:56.193Z,101825.53
2023-02-15T15:35:45.589Z,101824.50
2023-02-15T15:38:28.397Z,101838.16
2023-02-15T15:41:15.186Z,101836.78
2023-02-15T15:44:12.552Z,101845.09
2023-02-15T15:46:58.406Z,101847.00
2023-02-15T15:49:28.413Z,101844.38
2023-02-15T15:51:56.108Z,101843.16
2023-02-15T15:54:25.311Z,101849.06
2023-02-15T15:57:05.655Z,101854.50
2023-02-15T15:59:35.141Z,101862.25
2023-02-15T16:02:09.110Z,101860.94
2023-02-15T16:04:37.183Z,101861.94
2023-02-15T16:07:19.619Z,101865.75
2023-02-15T16:09:58.684Z,101869.44
2023-02-15T16:12:30.649Z,101876.56
2023-02-15T16:15:14.544Z,101870.31
2023-02-15T16:17:44.200Z,101874.56
2023-02-15T16:20:19.775Z,101858.19
2023-02-15T16:22:48.371Z,101876.72
2023-02-15T16:25:28.384Z,101877.38
2023-02-15T16:27:56.288Z,101885.13
2023-02-15T16:30:31.310Z,101886.81
2023-02-15T16:33:10.601Z,101886.44
2023-02-15T16:35:58.496Z,101890.38
2023-02-15T16:38:52.403Z,101876.44
2023-02-15T16:41:28.369Z,101891.28
2023-02-15T16:44:02.569Z,101900.03
2023-02-15T16:46:34.383Z,101893.16
2023-02-15T16:49:05.443Z,101901.34
2023-02-15T16:51:34.322Z,101900.03
2023-02-15T16:54:07.229Z,101916.16
2023-02-15T16:56:35.163Z,101914.03
2023-02-15T16:59:02.812Z,101923.16
2023-02-15T17:01:33.560Z,101924.03
2023-02-15T17:04:23.221Z,101921.22
2023-02-15T17:07:04.511Z,101912.72
2023-02-15T17:09:33.657Z,101928.66
2023-02-15T17:12:03.449Z,101924.81
2023-02-15T17:14:32.332Z,101929.53
2023-02-15T17:17:01.318Z,101935.28
2023-02-15T17:19:34.983Z,101926.66
2023-02-15T17:22:28.144Z,101941.72
2023-02-15T17:25:00.450Z,101931.16
2023-02-15T17:27:29.695Z,101927.50
2023-02-15T17:30:05.651Z,101938.66
2023-02-15T17:32:37.532Z,101931.75
2023-02-15T17:35:21.526Z,101935.75
2023-02-15T17:37:49.990Z,101939.53
2023-02-15T17:40:20.007Z,101935.28
2023-02-15T17:42:47.793Z,101933.34
2023-02-15T17:45:16.049Z,101937.31
2023-02-15T17:47:43.947Z,101936.44
2023-02-15T17:50:38.053Z,101934.31
2023-02-15T17:53:09.005Z,101941.22
2023-02-15T17:55:39.215Z,101941.53
2023-02-15T17:58:19.552Z,101940.72
2023-02-15T18:01:11.871Z,101938.03
2023-02-15T18:04:08.611Z,101931.72
2023-02-15T18:06:56.764Z,101931.16
2023-02-15T18:09:43.625Z,101937.09
2023-02-15T18:12:31.358Z,101939.09
2023-02-15T18:14:59.427Z,101933.25
2023-02-15T18:17:34.902Z,101941.50
2023-02-15T18:20:05.655Z,101941.91
2023-02-15T18:22:33.422Z,101946.09
2023-02-15T18:25:01.155Z,101943.34
2023-02-15T18:27:29.002Z,101939.31
2023-02-15T18:29:56.899Z,101931.91
2023-02-15T18:32:34.300Z,101937.09
2023-02-15T18:35:02.257Z,101944.59
2023-02-15T18:37:58.909Z,101938.25
2023-02-15T18:40:27.728Z,101938.53
2023-02-15T18:42:57.249Z,101940.69
2023-02-15T18:45:33.414Z,101943.31
2023-02-15T18:48:01.204Z,101940.16
2023-02-15T18:50:31.816Z,101944.06
2023-02-15T18:52:59.928Z,101941.44
2023-02-15T18:55:28.235Z,101940.78
2023-02-15T18:57:57.001Z,101940.63
2023-02-15T19:00:32.552Z,101935.72
2023-02-15T19:03:02.117Z,101942.63
2023-02-15T19:05:30.927Z,101933.97
2023-02-15T19:07:59.795Z,101942.75
2023-02-15T19:10:28.837Z,101936.94
2023-02-15T19:12:56.506Z,101933.50
2023-02-15T19:15:26.674Z,101936.81
2023-02-15T19:17:54.636Z,101938.31
2023-02-15T19:20:32.654Z,101941.25
2023-02-15T19:23:01.603Z,101935.78
2023-02-15T19:25:30.751Z,101942.28
2023-02-15T19:27:58.973Z,101940.59
2023-02-15T19:30:30.863Z,101940.81
2023-02-15T19:32:58.960Z,101930.13
2023-02-15T19:35:27.850Z,101927.91
2023-02-15T19:38:00.434Z,101936.34
2023-02-15T19:40:32.817Z,101933.22
2023-02-15T19:43:00.482Z,101937.44
2023-02-15T19:45:29.802Z,101934.47
2023-02-15T19:47:57.493Z,101929.94
2023-02-15T19:50:30.725Z,101933.50
2023-02-15T19:52:58.548Z,101932.88
2023-02-15T19:55:28.170Z,101935.56
2023-02-15T19:57:56.872Z,101929.59
2023-02-15T20:00:29.359Z,101929.50
2023-02-15T20:02:59.400Z,101933.41
2023-02-15T20:05:31.064Z,101928.63
2023-02-15T20:07:58.661Z,101934.53
2023-02-15T20:10:30.736Z,101937.22
2023-02-15T20:12:58.989Z,101934.19
2023-02-15T20:15:34.604Z,101930.28
2023-02-15T20:18:04.315Z,101925.00
2023-02-15T20:20:39.258Z,101930.97
2023-02-15T20:23:07.309Z,101928.72
2023-02-15T20:25:34.949Z,101922.94
2023-02-15T20:28:02.711Z,101922.75
2023-02-15T20:30:31.391Z,101925.53
2023-02-15T20:32:59.273Z,101916.47
2023-02-15T20:35:28.746Z,101915.88
2023-02-15T20:37:57.326Z,101926.38
2023-02-15T20:40:26.673Z,101928.25
2023-02-15T20:42:54.574Z,101929.94
2023-02-15T20:45:26.002Z,101935.47
2023-02-15T20:47:58.493Z,101922.78
2023-02-15T20:50:28.252Z,101934.78
2023-02-15T20:52:57.820Z,101920.09
2023-02-15T20:55:30.482Z,101926.84
2023-02-15T20:57:59.734Z,101933.38
2023-02-15T21:00:28.807Z,101928.03
2023-02-15T21:03:01.176Z,101924.75
2023-02-15T21:05:30.950Z,101935.47
2023-02-15T21:08:12.167Z,101928.44
2023-02-15T21:10:45.378Z,101927.72
2023-02-15T21:13:39.808Z,101931.13
2023-02-15T21:16:09.124Z,101928.03
2023-02-15T21:18:39.020Z,101924.88
2023-02-15T21:21:06.785Z,101927.72
2023-02-15T21:23:42.017Z,101931.78
2023-02-15T21:26:20.171Z,101921.44
2023-02-15T21:28:49.194Z,101919.59
2023-02-15T21:31:18.760Z,101922.28
2023-02-15T21:33:46.738Z,101927.22
2023-02-15T21:36:19.944Z,101927.63
2023-02-15T21:38:47.645Z,101924.94
2023-02-15T21:41:39.038Z,101926.81
2023-02-15T21:44:42.086Z,101930.72
2023-02-15T21:47:42.482Z,101927.81
2023-02-15T21:50:33.873Z,101930.91
2023-02-15T21:53:01.585Z,101940.28
2023-02-15T21:55:29.354Z,101937.25
2023-02-15T21:57:57.156Z,101934.81
2023-02-15T22:00:25.681Z,101938.19
2023-02-15T22:02:54.984Z,101939.25
2023-02-15T22:05:33.491Z,101933.69
2023-02-15T22:08:01.300Z,101940.19
2023-02-15T22:10:32.980Z,101930.44
2023-02-15T22:13:01.686Z,101938.38
2023-02-15T22:15:36.632Z,101943.31
2023-02-15T22:18:04.722Z,101947.78
2023-02-15T22:20:32.693Z,101945.41
2023-02-15T22:23:00.496Z,101944.72
2023-02-15T22:25:28.443Z,101957.34
2023-02-15T22:27:59.074Z,101958.03
2023-02-15T22:30:29.265Z,101962.09
2023-02-15T22:32:57.460Z,101966.13
2023-02-15T22:35:34.432Z,101962.19
2023-02-15T22:38:02.197Z,101956.28
2023-02-15T22:40:32.039Z,101955.41
2023-02-15T22:43:01.017Z,101961.56
2023-02-15T22:45:29.132Z,101962.63
2023-02-15T22:47:57.796Z,101963.66
2023-02-15T22:50:27.547Z,101975.81
2023-02-15T22:52:55.221Z,101975.88
2023-02-15T22:55:27.983Z,101972.53
2023-02-15T22:57:55.803Z,101979.31
2023-02-15T23:00:25.869Z,101974.38
2023-02-15T23:02:56.634Z,101982.63
2023-02-15T23:05:33.728Z,101979.75
2023-02-15T23:08:11.705Z,101977.19
2023-02-15T23:10:39.752Z,101971.44
2023-02-15T23:13:25.987Z,101980.03
2023-02-15T23:15:58.858Z,101983.44
2023-02-15T23:18:38.286Z,101984.63
2023-02-15T23:21:31.303Z,101988.47
2023-02-15T23:24:19.083Z,101986.03
2023-02-15T23:26:47.634Z,101996.38
2023-02-15T23:29:17.747Z,101991.31
2023-02-15T23:31:47.202Z,101995.25
2023-02-15T23:34:29.476Z,102000.47
2023-02-15T23:36:57.365Z,101998.25
2023-02-15T23:39:46.273Z,102003.59
2023-02-15T23:42:21.796Z,102004.84
2023-02-15T23:44:51.075Z,102008.56
2023-02-15T23:47:19.853Z,102008.50
2023-02-15T23:49:47.532Z,102012.19
2023-02-15T23:52:15.211Z,102005.25
2023-02-15T23:54:43.487Z,102011.84
2023-02-15T23:57:11.331Z,102004.78
2023-02-15T23:59:39.912Z,102013.41
